This demonstration page uses our WeatherBlox Daily Observations layout. Learn more.

41.55636, -103.73856

Hourly Observations for October 2, 2019

Temp ( °F °C ) Dew Point ( °F °C ) Humidity (%) Winds ( mph kmh ) Pressure ( in mb ) Visibility ( mi km ) Precip ( " mm )
12:58 am 00:58 Cloudy with Light Showers 39 4.1 38 3.6 97 97 ENE 13 20 30.08 1019 5 8.0467 0 0
1:58 am 01:58 Cloudy 39 3.7 38 3.2 97 97 ENE 12 19 30.1 1019 10 16.0934 0 0
2:58 am 02:58 Cloudy 38 3.6 38 3.2 97 97 NE 12 19 30.12 1020 7 11.26538 0 0
3:58 am 03:58 Cloudy 38 3.2 37 2.8 97 97 NE 13 20 30.12 1020 10 16.0934 0.01 0.254
4:58 am 04:58 Cloudy with Light Showers 37 2.9 37 2.6 98 98 NE 9 15 30.14 1021 4 6.43736 0 0
5:58 am 05:58 Cloudy with Heavy Drizzle 37 2.8 37 2.5 98 98 NE 8 13 30.13 1020 4 6.43736 0.01 0.254
6:58 am 06:58 Cloudy with Drizzle 37 2.6 36 2.3 98 98 NE 7 11 30.12 1020 5 8.0467 0.02 0.508
7:58 am 07:58 Mostly Cloudy with Light Showers 37 2.6 36 2.3 98 98 NE 6 9 30.12 1020 7 11.26538 0.01 0.254
8:58 am 08:58 Cloudy with Drizzle 37 2.6 36 2.3 98 98 ENE 8 13 30.1 1019 3 4.82802 0 0
9:58 am 09:58 Cloudy with Mist and Fog 37 2.6 36 2.3 98 98 ENE 3 6 30.1 1019 4 6.43736 0 0
10:58 am 10:58 Mostly Cloudy with Light Showers 37 2.6 36 2.3 98 98 NE 7 11 30.1 1019 5 8.0467 0 0
11:58 am 11:58 Mostly Cloudy with Mist and Fog 37 2.5 36 2.2 98 98 NE 6 9 30.11 1020 7 11.26538 0 0
12:58 pm 12:58 Cloudy with Mist and Fog 37 2.5 36 2.3 99 99 NE 6 9 30.11 1020 1.5 2.41401 0 0
1:58 pm 13:58 Cloudy with Light Showers 37 2.7 37 2.6 99 99 NE 6 9 30.13 1020 5 8.0467 0 0
3:58 pm 15:58 Cloudy 39 4 37 3 93 93 Calm 30.12 1020 10 16.0934 0 0
4:58 pm 16:58 Mostly Cloudy 41 5 37 2.7 85 85 Calm 30.12 1020 10 16.0934 0 0
6:58 pm 18:58 Mostly Cloudy 46 7.6 39 4 78 78 Calm 30.09 1019 10 16.0934 0 0
7:58 pm 19:58 Mostly Cloudy 48 9.1 38 3.3 67 67 NW 5 7 30.06 1018 10 16.0934 0 0
8:58 pm 20:58 Mostly Sunny 52 10.9 38 3.4 60 60 N 5 7 30.05 1018 10 16.0934 0 0
9:58 pm 21:58 Mostly Sunny 53 11.7 39 4.1 60 60 NE 6 9 30.06 1018 10 16.0934 0 0
10:58 pm 22:58 Sunny 51 10.6 39 4 64 64 NNE 9 15 30.09 1019 10 16.0934 0 0
11:58 pm 23:58 Mostly Cloudy 49 9.7 39 4 68 68 NNW 7 11 30.15 1021 10 16.0934 0 0

Powered by AerisWeather